Time;durP1;ratioP1;P1;durP2;ratioP2;P2;SDS_P1;SDS_P2;PMS_P1;PMS_P2;Temp;Humidity;BMP_temperature;BMP_pressure;BME280_temperature;BME280_humidity;BME280_pressure;Samples;Min_cycle;Max_cycle;Signal;HPM_P1;HPM_P2
2022/12/26 00:00:59;;;;;;;124.63;12.35;;;;;;;4.07;100.00;93069.81;2106207;28;20028;-86
2022/12/26 00:02:00;;;;;;;64.78;11.98;;;;;;;4.13;100.00;93068.34;2099952;28;20020;-86
2022/12/26 00:03:02;;;;;;;111.93;12.98;;;;;;;4.24;100.00;93061.16;2106527;28;20035;-85
2022/12/26 00:04:03;;;;;;;128.50;12.80;;;;;;;4.25;100.00;93060.00;2114707;28;20091;-86
2022/12/26 00:05:05;;;;;;;132.48;13.68;;;;;;;4.13;100.00;93070.97;2104686;28;20172;-85
2022/12/26 00:06:16;;;;;;;110.38;11.93;;;;;;;4.00;100.00;93071.31;2089775;28;20068;-84
2022/12/26 00:07:17;;;;;;;95.05;12.10;;;;;;;3.97;100.00;93063.38;2100940;28;20020;-84
2022/12/26 00:08:20;;;;;;;64.07;11.32;;;;;;;3.99;100.00;93059.22;2106222;28;20020;-84
2022/12/26 00:09:20;;;;;;;102.97;11.98;;;;;;;4.33;100.00;93052.84;2090252;28;20040;-85
2022/12/26 00:10:21;;;;;;;126.57;12.00;;;;;;;4.17;100.00;93061.13;2089727;28;20025;-85
2022/12/26 00:11:24;;;;;;;68.55;11.40;;;;;;;4.19;100.00;93064.94;2106233;28;20024;-84
2022/12/26 00:12:25;;;;;;;85.93;11.73;;;;;;;4.11;100.00;93066.03;2106237;28;20073;-85
2022/12/26 00:13:26;;;;;;;147.52;12.60;;;;;;;3.94;100.00;93064.13;2089651;28;20020;-83
2022/12/26 00:14:27;;;;;;;89.35;12.60;;;;;;;4.03;100.00;93064.50;2089581;28;20032;-84
2022/12/26 00:15:28;;;;;;;214.05;13.82;;;;;;;4.03;100.00;93067.91;2097989;28;20036;-85
2022/12/26 00:16:29;;;;;;;192.65;13.32;;;;;;;3.95;100.00;93062.97;2098159;28;20025;-85
2022/12/26 00:17:30;;;;;;;177.85;13.00;;;;;;;3.96;100.00;93059.22;2102104;28;20024;-86
2022/12/26 00:18:31;;;;;;;233.50;16.08;;;;;;;3.92;100.00;93072.44;2093453;28;20036;-84
2022/12/26 00:19:32;;;;;;;147.38;13.35;;;;;;;4.19;100.00;93054.34;2103434;28;20527;-86
2022/12/26 00:20:33;;;;;;;224.48;14.40;;;;;;;4.02;100.00;93055.81;2106263;28;20935;-83
2022/12/26 00:21:34;;;;;;;270.55;14.40;;;;;;;3.94;100.00;93048.25;2100242;28;20024;-84
2022/12/26 00:22:35;;;;;;;447.58;17.85;;;;;;;3.91;100.00;93052.41;2103955;28;20016;-83
2022/12/26 00:23:37;;;;;;;499.63;18.33;;;;;;;3.90;100.00;93055.41;2099970;28;20024;-84
2022/12/26 00:24:38;;;;;;;363.42;16.77;;;;;;;3.91;100.00;93055.06;2096204;28;20027;-84
2022/12/26 00:25:39;;;;;;;457.92;17.90;;;;;;;3.91;100.00;93060.34;2099904;28;20033;-84
2022/12/26 00:26:40;;;;;;;326.20;16.25;;;;;;;3.88;100.00;93066.38;2111130;27;20025;-84
2022/12/26 00:27:41;;;;;;;439.25;17.60;;;;;;;3.91;100.00;93056.94;2106121;28;20028;-84
2022/12/26 00:28:42;;;;;;;443.20;19.38;;;;;;;3.95;100.00;93068.28;2097872;28;20054;-84
2022/12/26 00:29:43;;;;;;;308.02;15.13;;;;;;;3.87;100.00;93069.41;2106310;28;20028;-84
2022/12/26 00:30:44;;;;;;;458.83;18.95;;;;;;;3.92;100.00;93072.44;2097742;28;20477;-84
2022/12/26 00:31:45;;;;;;;486.52;17.98;;;;;;;3.89;100.00;93078.47;2097760;28;20777;-83
2022/12/26 00:32:46;;;;;;;523.70;20.08;;;;;;;3.88;100.00;93079.59;2105356;28;20032;-85
2022/12/26 00:33:48;;;;;;;505.92;18.27;;;;;;;3.90;100.00;93076.56;2097541;28;20020;-85
2022/12/26 00:34:49;;;;;;;428.02;17.52;;;;;;;4.00;100.00;93073.97;2098030;28;20036;-83
2022/12/26 00:35:49;;;;;;;391.65;21.25;;;;;;;4.08;100.00;93077.38;2106378;28;20055;-85
2022/12/26 00:36:50;;;;;;;552.03;19.60;;;;;;;4.00;100.00;93071.31;2114499;28;20069;-85
2022/12/26 00:37:51;;;;;;;490.48;17.85;;;;;;;3.99;100.00;93077.72;2097753;28;20028;-84
2022/12/26 00:38:52;;;;;;;348.30;17.02;;;;;;;4.01;100.00;93070.19;2089518;28;20646;-85
2022/12/26 00:39:53;;;;;;;337.45;16.33;;;;;;;3.95;100.00;93065.63;2105874;28;20492;-83
2022/12/26 00:40:54;;;;;;;323.38;14.32;;;;;;;4.05;100.00;93067.56;2106274;28;20039;-85
2022/12/26 00:41:55;;;;;;;666.08;23.52;;;;;;;4.08;100.00;93061.50;2101638;28;20036;-84
2022/12/26 00:42:56;;;;;;;568.85;19.20;;;;;;;3.99;100.00;93067.16;2097011;28;20366;-87
2022/12/26 00:43:58;;;;;;;402.40;16.75;;;;;;;3.93;100.00;93063.38;2098373;28;20087;-85
2022/12/26 00:44:59;;;;;;;461.30;16.65;;;;;;;3.99;100.00;93064.50;2098626;28;20024;-85
2022/12/26 00:46:07;;;;;;;285.35;14.15;;;;;;;3.94;100.00;93064.88;2114496;28;20028;-86
2022/12/26 00:47:08;;;;;;;447.15;17.00;;;;;;;3.91;100.00;93056.94;2107131;28;20373;-85
2022/12/26 00:48:09;;;;;;;419.85;17.80;;;;;;;3.95;100.00;93052.41;2103446;28;20056;-82
2022/12/26 00:49:10;;;;;;;395.85;16.98;;;;;;;3.94;100.00;93061.47;2097592;28;20024;-83
2022/12/26 00:50:11;;;;;;;306.35;15.45;;;;;;;3.93;100.00;93052.78;2113780;28;20019;-85
2022/12/26 00:51:13;;;;;;;540.40;20.17;;;;;;;3.95;100.00;93047.91;2105875;28;20563;-86
2022/12/26 00:52:14;;;;;;;346.17;16.90;;;;;;;3.91;100.00;93047.13;2106313;28;20103;-85
2022/12/26 00:53:15;;;;;;;426.33;15.93;;;;;;;3.93;100.00;93055.44;2105983;28;20035;-86
2022/12/26 00:54:16;;;;;;;393.55;16.00;;;;;;;3.93;100.00;93052.03;2106139;28;20032;-85
2022/12/26 00:55:17;;;;;;;295.15;15.05;;;;;;;4.03;100.00;93054.69;2106089;28;20024;-85
2022/12/26 00:56:18;;;;;;;295.50;15.65;;;;;;;4.03;100.00;93056.56;2097579;28;20028;-86
2022/12/26 00:57:19;;;;;;;353.52;16.50;;;;;;;3.96;100.00;93057.34;2109551;28;20023;-84
2022/12/26 00:58:21;;;;;;;325.80;15.45;;;;;;;4.11;100.00;93044.88;2105413;28;20027;-84
2022/12/26 00:59:22;;;;;;;246.95;13.18;;;;;;;4.02;100.00;93053.19;2093447;28;20028;-84
2022/12/26 01:00:23;;;;;;;327.83;14.93;;;;;;;3.98;100.00;93046.38;2093692;28;20486;-85
2022/12/26 01:01:24;;;;;;;152.10;10.93;;;;;;;4.01;100.00;93056.22;2110583;27;20102;-84
2022/12/26 01:02:37;;;;;;;371.92;14.15;;;;;;;3.90;100.00;93060.72;2109598;28;20050;-85
2022/12/26 01:03:38;;;;;;;358.15;16.70;;;;;;;3.83;100.00;93060.72;2107570;28;20123;-86
2022/12/26 01:04:39;;;;;;;360.40;14.45;;;;;;;3.90;100.00;93064.09;2098713;28;20070;-85
2022/12/26 01:05:50;;;;;;;297.48;14.40;;;;;;;3.94;100.00;93064.13;2095900;28;20416;-86
2022/12/26 01:07:00;;;;;;;292.90;12.98;;;;;;;3.82;100.00;93064.47;2100378;28;20052;-85
2022/12/26 01:08:01;;;;;;;365.13;14.60;;;;;;;3.78;100.00;93062.59;2099877;28;20032;-86
2022/12/26 01:09:02;;;;;;;395.75;14.98;;;;;;;3.78;100.00;93065.22;2104164;28;20501;-85
2022/12/26 01:10:05;;;;;;;350.40;15.48;;;;;;;3.73;100.00;93076.16;2098969;28;20082;-85
2022/12/26 01:11:10;;;;;;;388.83;15.48;;;;;;;3.92;100.00;93079.63;2097792;28;20028;-85
2022/12/26 01:12:11;;;;;;;280.85;13.43;;;;;;;3.85;100.00;93076.94;2098018;28;20547;-85
2022/12/26 01:13:13;;;;;;;290.52;13.85;;;;;;;3.81;100.00;93078.81;2097528;28;20047;-86
2022/12/26 01:14:16;;;;;;;89.00;9.68;;;;;;;3.82;100.00;93081.09;2097521;28;20066;-86
2022/12/26 01:15:17;;;;;;;143.93;11.55;;;;;;;3.81;100.00;93061.06;2089827;28;20028;-85
2022/12/26 01:16:18;;;;;;;333.02;13.75;;;;;;;3.81;100.00;93069.00;2097789;28;20086;-85
2022/12/26 01:17:19;;;;;;;260.40;14.15;;;;;;;3.84;100.00;93067.50;2097451;28;20111;-87
2022/12/26 01:18:20;;;;;;;284.98;13.73;;;;;;;3.92;100.00;93067.16;2097369;28;20041;-85
2022/12/26 01:19:21;;;;;;;131.00;11.68;;;;;;;3.89;100.00;93073.19;2105642;28;20051;-84
2022/12/26 01:20:22;;;;;;;143.13;12.00;;;;;;;3.88;100.00;93073.56;2097159;28;20699;-86
2022/12/26 01:21:23;;;;;;;180.80;12.25;;;;;;;3.89;100.00;93075.06;2092765;28;20063;-84
2022/12/26 01:22:25;;;;;;;188.68;11.98;;;;;;;3.90;100.00;93071.28;2101974;28;20023;-84
2022/12/26 01:23:27;;;;;;;223.82;12.10;;;;;;;3.87;100.00;93079.97;2100927;28;20063;-85
2022/12/26 01:24:28;;;;;;;270.25;13.88;;;;;;;3.81;100.00;93076.16;2102515;28;20081;-85
2022/12/26 01:25:29;;;;;;;189.23;11.93;;;;;;;3.82;100.00;93080.31;2100449;28;20074;-84
2022/12/26 01:26:30;;;;;;;180.15;11.73;;;;;;;3.76;100.00;93074.66;2102667;28;20023;-84
2022/12/26 01:27:31;;;;;;;84.13;10.55;;;;;;;3.88;100.00;93068.28;2100385;28;20027;-83
2022/12/26 01:28:32;;;;;;;132.70;11.98;;;;;;;3.93;100.00;93070.53;2108639;27;20085;-86
2022/12/26 01:29:33;;;;;;;333.55;15.48;;;;;;;3.94;100.00;93077.34;2108251;28;20043;-85
2022/12/26 01:30:34;;;;;;;187.65;11.98;;;;;;;3.86;100.00;93073.91;2099816;28;20031;-86
2022/12/26 01:31:35;;;;;;;136.13;11.43;;;;;;;3.87;100.00;93077.34;2095053;28;20496;-84
2022/12/26 01:32:35;;;;;;;214.18;12.30;;;;;;;3.83;100.00;93077.31;2091269;28;20029;-85
2022/12/26 01:33:36;;;;;;;215.85;12.30;;;;;;;3.81;100.00;93084.84;2095237;28;20036;-87
2022/12/26 01:34:37;;;;;;;185.82;12.20;;;;;;;3.84;100.00;93096.59;2097274;28;20028;-86
2022/12/26 01:35:38;;;;;;;193.77;12.50;;;;;;;4.10;100.00;93098.16;2097307;28;20112;-85
2022/12/26 01:36:40;;;;;;;327.02;13.13;;;;;;;3.95;100.00;93087.56;2097279;28;20065;-85
2022/12/26 01:37:41;;;;;;;225.63;12.18;;;;;;;3.88;100.00;93086.78;2105678;28;20032;-85
2022/12/26 01:38:42;;;;;;;192.13;11.43;;;;;;;3.94;100.00;93088.66;2105702;28;20036;-85
2022/12/26 01:39:43;;;;;;;226.20;12.13;;;;;;;3.89;100.00;93102.25;2113988;28;20019;-86
2022/12/26 01:40:44;;;;;;;213.35;12.15;;;;;;;3.82;100.00;93086.38;2106544;28;20027;-85
2022/12/26 01:41:46;;;;;;;126.93;11.43;;;;;;;3.84;100.00;93096.59;2104745;28;20024;-85
2022/12/26 01:42:47;;;;;;;273.33;13.82;;;;;;;3.98;100.00;93092.09;2097976;28;20142;-85
2022/12/26 01:43:52;;;;;;;277.40;13.48;;;;;;;3.93;100.00;93086.41;2097291;28;20484;-85
2022/12/26 01:45:26;;;;;;;454.05;15.50;;;;;;;3.83;100.00;93085.25;2098176;28;20020;-83
2022/12/26 01:46:38;;;;;;;107.88;10.57;;;;;;;4.03;100.00;93091.72;2105972;28;20105;-84
2022/12/26 01:47:48;;;;;;;210.48;11.38;;;;;;;4.04;100.00;93098.53;2113781;27;20474;-86
2022/12/26 01:48:50;;;;;;;100.88;9.38;;;;;;;4.32;100.00;93094.44;2098670;28;20028;-87
2022/12/26 01:49:55;;;;;;;285.05;12.65;;;;;;;4.17;100.00;93088.38;2105613;28;20028;-86
2022/12/26 01:51:01;;;;;;;251.07;11.75;;;;;;;4.26;100.00;93088.75;2097668;28;20469;-86
2022/12/26 01:52:07;;;;;;;131.38;10.25;;;;;;;4.13;100.00;93084.19;2092026;28;20100;-85
2022/12/26 01:53:24;;;;;;;216.18;11.68;;;;;;;4.15;100.00;93087.97;2098055;28;20024;-86
2022/12/26 01:54:29;;;;;;;252.23;12.88;;;;;;;4.12;100.00;93087.97;2099308;28;20759;-86
2022/12/26 01:55:31;;;;;;;311.70;13.88;;;;;;;3.97;100.00;93089.81;2090141;28;20028;-85
2022/12/26 01:56:36;;;;;;;256.92;11.95;;;;;;;3.97;100.00;93092.47;2097811;28;20074;-86
2022/12/26 01:57:43;;;;;;;202.35;13.52;;;;;;;4.00;100.00;93097.78;2106044;28;20032;-86
2022/12/26 01:58:51;;;;;;;222.48;12.18;;;;;;;4.09;100.00;93091.38;2091317;28;20025;-87
2022/12/26 01:59:54;;;;;;;280.90;16.02;;;;;;;4.07;100.00;93101.56;2106555;28;20043;-83
2022/12/26 02:00:56;;;;;;;208.02;11.98;;;;;;;4.32;100.00;93091.78;2113470;28;20034;-84
2022/12/26 02:01:59;;;;;;;276.50;13.23;;;;;;;4.15;100.00;93093.25;2089764;28;20040;-86
2022/12/26 02:05:46;;;;;;;318.77;12.90;;;;;;;4.07;100.00;93102.31;2109721;28;20069;-86
2022/12/26 02:06:47;;;;;;;293.73;12.35;;;;;;;4.06;100.00;93084.94;2104880;28;20066;-84
2022/12/26 02:07:48;;;;;;;320.67;13.93;;;;;;;3.90;100.00;93089.78;2101289;28;20020;-86
2022/12/26 02:08:50;;;;;;;251.65;12.50;;;;;;;4.02;100.00;93097.38;2088736;28;20445;-84
2022/12/26 02:09:51;;;;;;;269.67;12.95;;;;;;;3.91;100.00;93104.56;2105265;28;20027;-85
2022/12/26 02:11:17;;;;;;;305.30;13.65;;;;;;;3.94;100.00;93098.50;2109670;28;20024;-87
2022/12/26 02:12:30;;;;;;;221.63;12.65;;;;;;;3.96;100.00;93107.56;2103285;28;20086;-84
2022/12/26 02:13:34;;;;;;;279.90;13.52;;;;;;;3.87;100.00;93098.50;2108804;28;20028;-85
2022/12/26 02:14:46;;;;;;;204.15;12.45;;;;;;;3.78;100.00;93112.81;2114342;28;20114;-84
2022/12/26 02:17:55;;;;;;;;;;;;;;;3.86;100.00;93102.25;2148488;27;20135;-85
2022/12/26 02:18:56;;;;;;;315.85;12.88;;;;;;;3.84;100.00;93097.34;2129023;27;19938;-85
2022/12/26 02:20:18;;;;;;;267.98;12.57;;;;;;;3.87;100.00;93101.13;2104221;28;20079;-86
2022/12/26 02:21:32;;;;;;;361.73;15.73;;;;;;;3.83;100.00;93105.66;2119680;27;20030;-87
2022/12/26 02:22:54;;;;;;;395.88;15.70;;;;;;;3.78;100.00;93089.03;2113474;27;20107;-86
2022/12/26 02:24:08;;;;;;;432.73;16.80;;;;;;;3.71;100.00;93083.69;2111147;27;20027;-84
2022/12/26 02:25:46;;;;;;;239.60;12.52;;;;;;;3.84;100.00;93088.66;2123140;27;20023;-87
2022/12/26 02:27:14;;;;;;;262.40;12.75;;;;;;;3.87;100.00;93099.25;2117984;28;20023;-86
2022/12/26 02:28:36;;;;;;;277.38;13.20;;;;;;;4.15;100.00;93101.19;2102292;28;20027;-86
2022/12/26 02:30:19;;;;;;;407.75;17.55;;;;;;;4.04;100.00;93106.47;2105976;28;20074;-84
2022/12/26 02:31:34;;;;;;;326.90;15.10;;;;;;;3.84;100.00;93112.44;2104019;28;20484;-87
2022/12/26 02:32:52;;;;;;;254.23;13.55;;;;;;;4.01;100.00;93117.78;2114640;27;20483;-89
2022/12/26 02:33:58;;;;;;;259.38;13.13;;;;;;;3.90;100.00;93122.28;2123396;27;20023;-87
2022/12/26 02:35:34;;;;;;;395.25;15.38;;;;;;;3.85;100.00;93116.59;2113526;28;20141;-86
2022/12/26 02:36:49;;;;;;;130.88;10.80;;;;;;;4.02;100.00;93123.84;2114020;28;20440;-85
2022/12/26 02:38:24;;;;;;;156.43;12.30;;;;;;;3.84;100.00;93128.31;2114696;28;20110;-85
2022/12/26 02:39:34;;;;;;;143.57;11.32;;;;;;;3.74;100.00;93124.50;2121845;27;20468;-85
2022/12/26 02:40:55;;;;;;;;;;;;;;;3.74;100.00;93122.63;2108356;28;20132;-85
2022/12/26 02:42:08;;;;;;;143.80;10.90;;;;;;;3.86;100.00;93121.50;2107240;28;19915;-86
2022/12/26 02:43:47;;;;;;;108.55;11.70;;;;;;;3.75;100.00;93113.53;2105584;28;20044;-85
2022/12/26 02:47:51;;;;;;;267.80;12.60;;;;;;;3.78;100.00;93118.09;2118511;28;20069;-86
2022/12/26 02:48:54;;;;;;;196.77;12.55;;;;;;;3.76;100.00;93117.69;2105289;28;20146;-84
2022/12/26 03:13:09;;;;;;;235.48;12.50;;;;;;;3.91;100.00;93104.56;2107200;28;20734;-85
2022/12/26 03:14:18;;;;;;;241.13;12.45;;;;;;;4.17;100.00;93100.81;2097087;28;20025;-85
2022/12/26 03:15:23;;;;;;;278.13;13.25;;;;;;;3.92;100.00;93095.47;2089414;28;20025;-85
2022/12/26 03:18:05;;;;;;;204.48;12.82;;;;;;;3.86;100.00;93105.63;2116709;27;20161;-85
2022/12/26 03:19:10;;;;;;;203.95;12.02;;;;;;;3.85;100.00;93100.72;2112922;28;20038;-86
2022/12/26 03:20:20;;;;;;;293.58;14.32;;;;;;;3.76;100.00;93101.09;2096456;28;20028;-87
2022/12/26 03:21:25;;;;;;;177.10;13.00;;;;;;;3.78;100.00;93104.13;2117625;27;20060;-86
2022/12/26 03:22:37;;;;;;;185.18;12.60;;;;;;;3.76;100.00;93096.53;2115816;28;20028;-85
2022/12/26 03:23:43;;;;;;;132.05;13.85;;;;;;;3.78;100.00;93096.94;2098717;28;20063;-86
2022/12/26 03:27:35;;;;;;;88.22;14.20;;;;;;;3.83;100.00;93093.19;2119824;27;20479;-87
2022/12/26 03:28:37;;;;;;;161.25;13.07;;;;;;;3.74;100.00;93093.53;2108397;28;20028;-85
2022/12/26 03:31:00;;;;;;;155.75;13.07;;;;;;;3.75;100.00;93095.03;2094627;28;20389;-85
2022/12/26 03:32:05;;;;;;;110.10;12.00;;;;;;;3.77;100.00;93090.13;2092470;28;20111;-85
2022/12/26 03:34:15;;;;;;;87.47;12.20;;;;;;;3.70;100.00;93095.41;2094456;28;20048;-86
2022/12/26 03:34:28;;;;;;;72.00;12.40;;;;;;;3.66;100.00;93088.59;2103458;28;20039;-87
2022/12/26 03:35:32;;;;;;;58.85;12.82;;;;;;;3.63;100.00;93087.44;2097900;28;20060;-87
2022/12/26 03:36:53;;;;;;;27.70;12.98;;;;;;;3.65;100.00;93087.09;2085279;28;20025;-85
2022/12/26 03:38:00;;;;;;;22.35;11.90;;;;;;;3.66;100.00;93099.16;2111483;27;20034;-86
2022/12/26 04:19:22;;;;;;;31.83;11.88;;;;;;;3.77;100.00;93098.06;2111127;28;20046;-84
2022/12/26 04:19:27;;;;;;;17.77;11.65;;;;;;;3.84;100.00;93107.91;2108968;27;20480;-87
2022/12/26 04:20:45;;;;;;;18.50;11.43;;;;;;;3.85;100.00;93104.13;2110922;28;20527;-87
2022/12/26 04:44:49;;;;;;;24.95;11.77;;;;;;;4.02;100.00;93076.97;2114431;28;20019;-85
2022/12/26 04:45:50;;;;;;;21.10;12.52;;;;;;;3.98;100.00;93076.22;2105807;28;20020;-85
2022/12/26 04:46:53;;;;;;;19.20;11.75;;;;;;;4.08;100.00;93082.66;2097729;28;20021;-85
2022/12/26 04:50:49;;;;;;;20.00;12.20;;;;;;;4.00;100.00;93073.97;2118820;27;20582;-86
2022/12/26 04:51:50;;;;;;;20.27;12.15;;;;;;;4.24;100.00;93071.72;2114355;28;20106;-85
2022/12/26 04:52:57;;;;;;;20.67;11.88;;;;;;;4.12;100.00;93074.72;2106267;28;20028;-86
2022/12/26 04:53:58;;;;;;;21.38;11.68;;;;;;;4.12;100.00;93072.84;2105716;28;20016;-85
2022/12/26 04:54:59;;;;;;;21.92;12.85;;;;;;;4.12;100.00;93074.72;2098589;28;20028;-84
2022/12/26 04:56:00;;;;;;;22.23;12.68;;;;;;;4.15;100.00;93068.69;2101671;28;20409;-86
2022/12/26 04:57:02;;;;;;;21.05;12.65;;;;;;;4.27;100.00;93071.75;2096361;28;20043;-85
2022/12/26 04:58:03;;;;;;;23.52;13.70;;;;;;;4.24;100.00;93066.44;2099258;28;20021;-85
2022/12/26 04:59:16;;;;;;;23.80;12.40;;;;;;;4.35;100.00;93066.47;2105913;28;20089;-85
2022/12/26 05:00:17;;;;;;;20.10;12.00;;;;;;;4.24;100.00;93061.16;2097525;28;20529;-86
2022/12/26 05:09:33;;;;;;;21.67;12.95;;;;;;;4.24;100.00;93059.25;2099994;28;20027;-85
2022/12/26 05:10:34;;;;;;;20.85;12.60;;;;;;;4.26;100.00;93064.94;2108370;28;20118;-85
2022/12/26 05:11:35;;;;;;;22.58;13.48;;;;;;;4.19;100.00;93077.41;2105764;28;20388;-83
2022/12/26 05:12:36;;;;;;;21.58;13.75;;;;;;;4.34;100.00;93070.22;2097499;28;20761;-84
2022/12/26 05:13:37;;;;;;;22.88;12.38;;;;;;;4.27;100.00;93078.94;2097490;28;20051;-86
2022/12/26 05:14:38;;;;;;;20.95;12.60;;;;;;;4.25;100.00;93086.47;2097475;28;20082;-83
2022/12/26 05:29:02;;;;;;;17.98;11.38;;;;;;;4.24;100.00;93083.06;2114001;27;20365;-84
2022/12/26 05:30:05;;;;;;;20.15;12.18;;;;;;;4.23;100.00;93083.44;2114177;28;20031;-85
2022/12/26 05:31:11;;;;;;;21.98;11.50;;;;;;;4.25;100.00;93086.47;2106035;28;20119;-85
2022/12/26 05:32:12;;;;;;;22.67;12.70;;;;;;;4.23;100.00;93086.09;2107355;27;20035;-87
2022/12/26 05:34:33;;;;;;;24.35;12.88;;;;;;;4.23;100.00;93086.09;2105397;27;20226;-86
2022/12/26 05:35:34;;;;;;;22.42;12.68;;;;;;;4.23;100.00;93092.16;2105367;28;20128;-85
2022/12/26 05:36:42;;;;;;;21.10;12.40;;;;;;;4.25;100.00;93089.13;2091471;28;20024;-86
2022/12/26 05:37:43;;;;;;;26.15;12.32;;;;;;;4.22;100.00;93088.00;2097813;28;20052;-87
2022/12/26 05:38:44;;;;;;;21.48;12.82;;;;;;;4.21;100.00;93086.47;2093034;28;20028;-86
2022/12/26 05:39:45;;;;;;;19.52;13.00;;;;;;;4.28;100.00;93091.00;2098343;28;20481;-86
2022/12/26 05:40:46;;;;;;;22.90;13.65;;;;;;;4.21;100.00;93091.75;2096398;28;20035;-87
2022/12/26 05:41:47;;;;;;;21.13;12.82;;;;;;;4.27;100.00;93086.88;2098049;28;20028;-87
2022/12/26 05:42:48;;;;;;;22.15;13.30;;;;;;;4.23;100.00;93094.03;2101233;28;20505;-84
2022/12/26 05:43:49;;;;;;;23.10;13.23;;;;;;;4.20;100.00;93094.78;2089052;28;20125;-87
2022/12/26 05:44:50;;;;;;;26.23;13.43;;;;;;;4.31;100.00;93094.81;2089199;28;20033;-85
2022/12/26 05:45:51;;;;;;;18.95;12.23;;;;;;;4.39;100.00;93089.16;2089197;28;20091;-85
2022/12/26 05:46:56;;;;;;;19.38;12.35;;;;;;;4.35;100.00;93090.28;2097338;28;20024;-85
2022/12/26 05:48:00;;;;;;;18.63;11.90;;;;;;;4.26;100.00;93094.03;2106215;28;20103;-85
2022/12/26 05:49:03;;;;;;;21.08;12.85;;;;;;;4.31;100.00;93092.16;2097683;28;20024;-86
2022/12/26 05:50:05;;;;;;;22.60;12.48;;;;;;;4.24;100.00;93088.34;2099370;27;20031;-85
2022/12/26 05:51:07;;;;;;;21.35;13.32;;;;;;;4.26;100.00;93088.00;2114181;28;20047;-86
2022/12/26 05:52:07;;;;;;;21.23;12.32;;;;;;;4.22;100.00;93087.25;2105477;28;20024;-87
2022/12/26 05:53:08;;;;;;;26.55;13.43;;;;;;;4.23;100.00;93089.50;2113837;28;20024;-86
2022/12/26 05:54:10;;;;;;;22.95;12.85;;;;;;;4.20;100.00;93078.91;2105484;28;20484;-86
2022/12/26 05:55:11;;;;;;;23.27;13.10;;;;;;;4.31;100.00;93082.34;2102833;28;20024;-83
2022/12/26 05:56:14;;;;;;;23.85;13.05;;;;;;;4.30;100.00;93072.88;2101417;28;20060;-86
2022/12/26 05:57:14;;;;;;;22.70;13.50;;;;;;;4.28;100.00;93075.91;2104724;28;20099;-87
2022/12/26 05:58:15;;;;;;;19.48;11.70;;;;;;;4.43;100.00;93097.06;2110685;28;20859;-87
2022/12/26 05:59:16;;;;;;;22.27;13.48;;;;;;;4.33;100.00;93087.25;2108728;28;20054;-83
2022/12/26 06:00:17;;;;;;;25.95;12.43;;;;;;;4.23;100.00;93089.50;2093661;28;20021;-86
2022/12/26 06:01:19;;;;;;;21.48;12.65;;;;;;;4.29;100.00;93092.53;2096364;28;20066;-86
2022/12/26 06:02:20;;;;;;;23.98;12.63;;;;;;;4.25;100.00;93091.75;2101708;28;20389;-84
2022/12/26 06:03:21;;;;;;;25.48;12.98;;;;;;;4.22;100.00;93089.88;2097398;28;20025;-86
2022/12/26 06:04:22;;;;;;;20.55;12.18;;;;;;;4.26;100.00;93104.63;2097077;28;20020;-87
2022/12/26 06:05:23;;;;;;;23.30;12.95;;;;;;;4.18;100.00;93113.69;2093116;28;20056;-85
2022/12/26 06:06:25;;;;;;;22.58;13.02;;;;;;;4.18;100.00;93110.28;2105515;28;20020;-85
2022/12/26 06:07:45;;;;;;;23.23;14.10;;;;;;;4.21;100.00;93099.69;2114187;28;20018;-85
2022/12/26 06:08:47;;;;;;;23.10;12.93;;;;;;;4.24;100.00;93098.19;2108153;28;20055;-84
2022/12/26 06:09:48;;;;;;;22.67;11.93;;;;;;;4.18;100.00;93107.63;2097634;28;20478;-84
2022/12/26 06:10:49;;;;;;;25.73;13.13;;;;;;;4.21;100.00;93101.56;2105577;28;20028;-86
2022/12/26 06:11:50;;;;;;;22.73;12.95;;;;;;;4.22;100.00;93106.50;2105548;28;20116;-86
2022/12/26 06:12:52;;;;;;;22.90;12.90;;;;;;;4.21;100.00;93104.22;2097206;28;20024;-85
2022/12/26 06:13:54;;;;;;;20.80;12.40;;;;;;;4.28;100.00;93089.13;2089087;28;20033;-85
2022/12/26 06:14:54;;;;;;;24.63;13.88;;;;;;;4.23;100.00;93094.78;2089446;28;20119;-86
2022/12/26 06:15:55;;;;;;;24.20;13.38;;;;;;;4.19;100.00;93083.44;2113446;28;20035;-86
2022/12/26 06:16:56;;;;;;;25.10;13.70;;;;;;;4.24;100.00;93085.72;2105865;28;20497;-86
2022/12/26 06:17:57;;;;;;;22.17;12.98;;;;;;;4.33;100.00;93087.25;2092896;28;20506;-86
2022/12/26 06:18:58;;;;;;;26.15;14.30;;;;;;;4.30;100.00;93072.88;2104439;28;20024;-86
2022/12/26 06:19:59;;;;;;;28.83;14.25;;;;;;;4.28;100.00;93073.25;2097167;28;20024;-86
2022/12/26 06:21:12;;;;;;;26.45;13.75;;;;;;;4.31;100.00;93066.47;2097031;28;20021;-85
2022/12/26 06:22:13;;;;;;;26.02;13.48;;;;;;;4.50;100.00;93071.38;2107187;28;20118;-85
2022/12/26 06:23:14;;;;;;;22.23;13.02;;;;;;;4.40;100.00;93061.56;2097122;28;20024;-87
2022/12/26 06:24:15;;;;;;;22.35;13.52;;;;;;;4.35;100.00;93058.53;2105409;28;20078;-86
2022/12/26 06:25:17;;;;;;;22.90;13.13;;;;;;;4.28;100.00;93056.63;2113921;28;20036;-87
2022/12/26 06:26:18;;;;;;;22.98;13.68;;;;;;;4.31;100.00;93052.47;2114016;28;20165;-85
2022/12/26 06:27:19;;;;;;;26.10;14.52;;;;;;;4.28;100.00;93052.09;2113927;28;20031;-86
2022/12/26 06:28:42;;;;;;;25.08;13.85;;;;;;;4.21;100.00;93041.47;2113874;28;20383;-86
2022/12/26 06:29:44;;;;;;;25.50;13.65;;;;;;;4.22;100.00;93047.56;2108583;28;20031;-86
2022/12/26 06:30:45;;;;;;;24.75;13.40;;;;;;;4.16;100.00;93049.03;2105778;28;20082;-85
2022/12/26 06:31:46;;;;;;;24.80;14.40;;;;;;;4.13;100.00;93044.53;2113803;28;20048;-87
2022/12/26 06:32:47;;;;;;;24.27;13.95;;;;;;;4.18;100.00;93052.84;2105439;28;20103;-86
2022/12/26 06:33:54;;;;;;;26.00;14.25;;;;;;;4.17;100.00;93069.06;2097060;28;20021;-84
2022/12/26 06:34:55;;;;;;;24.40;14.48;;;;;;;4.12;100.00;93067.56;2105847;28;20028;-85
2022/12/26 06:36:02;;;;;;;27.23;14.65;;;;;;;4.11;100.00;93071.34;2089311;28;20094;-84
2022/12/26 06:37:03;;;;;;;24.48;14.50;;;;;;;4.08;100.00;93077.38;2104631;28;20024;-86
2022/12/26 06:38:04;;;;;;;26.90;14.10;;;;;;;4.11;100.00;93067.94;2098705;28;20036;-86
2022/12/26 06:39:05;;;;;;;24.30;13.90;;;;;;;4.11;100.00;93081.16;2103616;28;20027;-87
2022/12/26 06:40:06;;;;;;;28.67;14.57;;;;;;;4.16;100.00;93072.84;2097089;28;20020;-85
2022/12/26 06:41:09;;;;;;;24.27;14.48;;;;;;;4.14;100.00;93067.19;2097315;28;20056;-86
2022/12/26 06:42:10;;;;;;;25.80;14.80;;;;;;;4.11;100.00;93066.03;2097336;28;20074;-87
2022/12/26 06:43:11;;;;;;;30.00;15.30;;;;;;;4.10;100.00;93074.38;2088918;28;20025;-86
2022/12/26 06:44:12;;;;;;;36.13;16.70;;;;;;;4.12;100.00;93067.56;2105387;28;20466;-87
2022/12/26 06:45:13;;;;;;;39.63;19.45;;;;;;;4.12;100.00;93075.47;2112595;28;20056;-86
2022/12/26 06:46:17;;;;;;;41.30;21.20;;;;;;;4.07;100.00;93070.56;2113803;28;20431;-86
2022/12/26 06:47:18;;;;;;;29.60;17.42;;;;;;;4.07;100.00;93061.88;2097928;28;20079;-86
2022/12/26 06:48:19;;;;;;;27.67;15.90;;;;;;;4.09;100.00;93067.56;2097020;28;20025;-86
2022/12/26 06:49:40;;;;;;;42.53;23.48;;;;;;;4.08;100.00;93064.13;2105318;28;20024;-86
2022/12/26 06:50:41;;;;;;;37.05;17.38;;;;;;;4.12;100.00;93066.78;2103745;28;20411;-83
2022/12/26 06:51:43;;;;;;;28.05;15.25;;;;;;;4.14;100.00;93061.91;2105351;28;20032;-83
2022/12/26 06:52:44;;;;;;;33.70;16.95;;;;;;;4.16;100.00;93068.31;2105725;28;20035;-86
2022/12/26 06:53:47;;;;;;;41.63;20.02;;;;;;;4.13;100.00;93050.56;2105280;28;20114;-84
2022/12/26 06:54:48;;;;;;;37.55;20.15;;;;;;;4.15;100.00;93053.59;2097214;28;20031;-86
2022/12/26 06:55:50;;;;;;;33.90;19.00;;;;;;;4.11;100.00;93060.75;2088749;28;20390;-85
2022/12/26 06:56:51;;;;;;;27.77;15.82;;;;;;;4.21;100.00;93052.06;2092905;28;20056;-87
2022/12/26 06:57:52;;;;;;;32.63;15.82;;;;;;;4.20;100.00;93055.84;2101182;28;20031;-86
2022/12/26 06:58:55;;;;;;;28.70;15.10;;;;;;;4.20;100.00;93063.03;2092876;28;20024;-84
2022/12/26 06:59:56;;;;;;;29.58;15.90;;;;;;;4.20;100.00;93057.75;2097396;28;20016;-86